Time;durP1;ratioP1;P1;durP2;ratioP2;P2;SDS_P1;SDS_P2;PMS_P1;PMS_P2;Temp;Humidity;BMP_temperature;BMP_pressure;BME280_temperature;BME280_humidity;BME280_pressure;Samples;Min_cycle;Max_cycle;Signal;HPM_P1;HPM_P2
2022/09/02 00:01:30;;;;;;;92.30;45.53;;;;;;;;;;4973640;28;20568;-62
2022/09/02 00:03:59;;;;;;;97.80;41.42;;;;;;;;;;4972962;28;20388;-60
2022/09/02 00:06:26;;;;;;;87.55;42.75;;;;;;;;;;4972510;28;20081;-60
2022/09/02 00:08:53;;;;;;;89.60;42.55;;;;;;;;;;4973820;28;20572;-60
2022/09/02 00:11:21;;;;;;;98.35;42.50;;;;;;;;;;4974172;28;20453;-62
2022/09/02 00:13:49;;;;;;;86.70;40.92;;;;;;;;;;4974450;28;20031;-62
2022/09/02 00:16:16;;;;;;;86.70;41.08;;;;;;;;;;4956988;28;20029;-60
2022/09/02 00:18:43;;;;;;;88.40;41.08;;;;;;;;;;4973731;28;20465;-60
2022/09/02 00:21:12;;;;;;;92.03;40.78;;;;;;;;;;4973265;28;20060;-60
2022/09/02 00:23:42;;;;;;;78.20;40.17;;;;;;;;;;4973141;28;20199;-60
2022/09/02 00:26:10;;;;;;;92.80;39.45;;;;;;;;;;4972642;28;20452;-62
2022/09/02 00:28:40;;;;;;;88.68;38.20;;;;;;;;;;4973398;28;20042;-63
2022/09/02 00:31:08;;;;;;;75.70;35.13;;;;;;;;;;4970457;28;20039;-63
2022/09/02 00:33:35;;;;;;;81.45;37.25;;;;;;;;;;4972425;28;20093;-61
2022/09/02 00:36:02;;;;;;;85.15;34.15;;;;;;;;;;4972649;28;20088;-60
2022/09/02 00:38:34;;;;;;;63.63;32.47;;;;;;;;;;4972897;28;20023;-63
2022/09/02 00:41:02;;;;;;;75.13;32.37;;;;;;;;;;4973504;28;20093;-59
2022/09/02 00:43:41;;;;;;;87.82;33.60;;;;;;;;;;4973021;28;20062;-60
2022/09/02 00:46:08;;;;;;;76.53;31.17;;;;;;;;;;4974799;28;20034;-61
2022/09/02 00:48:39;;;;;;;81.80;31.52;;;;;;;;;;4974361;28;20111;-62
2022/09/02 00:51:06;;;;;;;71.90;29.63;;;;;;;;;;4967216;28;20034;-62
2022/09/02 00:53:33;;;;;;;78.03;30.35;;;;;;;;;;4963734;28;20390;-61
2022/09/02 00:56:01;;;;;;;67.82;27.92;;;;;;;;;;4971535;28;20018;-60
2022/09/02 00:58:30;;;;;;;60.83;27.65;;;;;;;;;;4973486;28;20029;-62
2022/09/02 01:00:57;;;;;;;67.45;27.83;;;;;;;;;;4974063;28;20034;-60
2022/09/02 01:03:25;;;;;;;64.07;27.65;;;;;;;;;;4974154;28;20409;-60
2022/09/02 01:05:53;;;;;;;66.68;28.48;;;;;;;;;;4974013;28;20048;-61
2022/09/02 01:08:23;;;;;;;70.00;27.67;;;;;;;;;;4974122;28;20130;-60
2022/09/02 01:10:53;;;;;;;84.00;28.80;;;;;;;;;;4973663;28;20515;-61
2022/09/02 01:13:22;;;;;;;70.70;27.85;;;;;;;;;;4973896;28;20057;-62
2022/09/02 01:15:52;;;;;;;80.03;27.25;;;;;;;;;;4972905;28;20057;-60
2022/09/02 01:18:22;;;;;;;70.00;26.85;;;;;;;;;;4972849;28;20027;-58
2022/09/02 01:20:48;;;;;;;69.28;25.90;;;;;;;;;;4972830;28;20043;-58
2022/09/02 01:23:16;;;;;;;64.13;24.23;;;;;;;;;;4972363;28;20125;-57
2022/09/02 01:25:43;;;;;;;64.93;24.55;;;;;;;;;;4972258;28;20042;-60
2022/09/02 01:28:13;;;;;;;63.10;23.20;;;;;;;;;;4971996;28;20030;-58
2022/09/02 01:30:42;;;;;;;58.83;23.55;;;;;;;;;;4971481;28;20030;-59
2022/09/02 01:33:10;;;;;;;67.18;25.17;;;;;;;;;;4971596;28;20033;-58
2022/09/02 01:35:37;;;;;;;71.78;26.10;;;;;;;;;;4954461;28;20106;-61
2022/09/02 01:38:04;;;;;;;81.50;28.00;;;;;;;;;;4972588;28;20023;-62
2022/09/02 01:40:32;;;;;;;71.28;25.52;;;;;;;;;;4968697;28;20408;-61
2022/09/02 01:43:07;;;;;;;68.68;24.35;;;;;;;;;;4971743;28;20034;-61
2022/09/02 01:45:35;;;;;;;62.00;24.55;;;;;;;;;;4970805;28;20046;-61
2022/09/02 01:48:02;;;;;;;61.47;23.60;;;;;;;;;;4971890;28;20038;-63
2022/09/02 01:50:30;;;;;;;59.53;22.98;;;;;;;;;;4971712;28;20078;-61
2022/09/02 01:53:00;;;;;;;59.33;22.27;;;;;;;;;;4971233;28;20027;-61
2022/09/02 01:55:27;;;;;;;58.08;22.98;;;;;;;;;;4971403;28;20489;-60
2022/09/02 01:57:54;;;;;;;60.22;21.17;;;;;;;;;;4971711;28;20122;-61
2022/09/02 02:00:21;;;;;;;49.15;20.70;;;;;;;;;;4971572;28;20046;-57
2022/09/02 02:02:48;;;;;;;55.35;19.83;;;;;;;;;;4969707;28;20023;-60
2022/09/02 02:05:16;;;;;;;53.92;20.40;;;;;;;;;;4972343;28;20110;-59
2022/09/02 02:07:44;;;;;;;48.45;19.38;;;;;;;;;;4971994;28;20027;-56
2022/09/02 02:10:11;;;;;;;44.53;18.30;;;;;;;;;;4971904;28;20058;-59
2022/09/02 02:12:39;;;;;;;48.35;17.98;;;;;;;;;;4972348;28;20054;-59
2022/09/02 02:15:07;;;;;;;46.40;17.23;;;;;;;;;;4972908;28;20027;-59
2022/09/02 02:17:34;;;;;;;38.83;17.60;;;;;;;;;;4956801;28;20066;-53
2022/09/02 02:20:02;;;;;;;47.45;16.50;;;;;;;;;;4972345;28;20026;-55
2022/09/02 02:22:30;;;;;;;39.90;16.08;;;;;;;;;;4975781;28;20039;-53
2022/09/02 02:24:57;;;;;;;44.42;15.30;;;;;;;;;;4980221;28;20122;-59
2022/09/02 02:27:24;;;;;;;37.80;15.52;;;;;;;;;;4982965;28;20022;-56
2022/09/02 02:29:51;;;;;;;31.73;14.45;;;;;;;;;;4980123;28;20026;-59
2022/09/02 02:32:18;;;;;;;38.13;14.77;;;;;;;;;;4983054;28;20035;-55
2022/09/02 02:34:46;;;;;;;36.35;14.93;;;;;;;;;;4978711;28;20035;-57
2022/09/02 02:37:13;;;;;;;32.15;14.25;;;;;;;;;;4981767;28;20485;-54
2022/09/02 02:39:41;;;;;;;32.40;13.75;;;;;;;;;;4982798;28;20109;-53
2022/09/02 02:42:08;;;;;;;27.17;12.55;;;;;;;;;;4981515;28;20050;-57
2022/09/02 02:44:35;;;;;;;28.27;13.20;;;;;;;;;;4989634;28;20396;-57
2022/09/02 02:47:02;;;;;;;34.67;13.13;;;;;;;;;;4993022;28;20470;-53
2022/09/02 02:49:29;;;;;;;32.97;13.82;;;;;;;;;;4992942;28;20113;-55
2022/09/02 02:51:56;;;;;;;29.30;13.00;;;;;;;;;;4993048;28;20030;-52
2022/09/02 02:54:23;;;;;;;28.20;11.63;;;;;;;;;;4993024;28;20477;-55
2022/09/02 02:56:50;;;;;;;26.92;11.93;;;;;;;;;;4991928;28;20448;-51
2022/09/02 02:59:17;;;;;;;30.38;11.88;;;;;;;;;;4992793;28;20026;-52
2022/09/02 03:01:44;;;;;;;24.58;10.32;;;;;;;;;;4992970;28;20468;-52
2022/09/02 03:04:11;;;;;;;24.55;10.07;;;;;;;;;;4992912;28;20037;-54
2022/09/02 03:06:38;;;;;;;33.42;10.93;;;;;;;;;;4992897;28;20106;-53
2022/09/02 03:09:05;;;;;;;26.90;11.32;;;;;;;;;;4992840;28;20109;-54
2022/09/02 03:11:32;;;;;;;24.02;10.60;;;;;;;;;;4992656;28;20055;-53
2022/09/02 03:13:59;;;;;;;22.13;10.63;;;;;;;;;;4992848;28;20026;-51
2022/09/02 03:16:26;;;;;;;28.35;10.90;;;;;;;;;;4996406;28;20507;-56
2022/09/02 03:18:53;;;;;;;24.08;10.23;;;;;;;;;;4996552;28;20041;-52
2022/09/02 03:21:20;;;;;;;26.70;10.57;;;;;;;;;;4996506;28;20053;-51
2022/09/02 03:23:48;;;;;;;24.35;10.27;;;;;;;;;;4995053;28;20439;-51
2022/09/02 03:26:18;;;;;;;23.88;9.77;;;;;;;;;;4996396;28;20072;-54
2022/09/02 03:28:46;;;;;;;26.08;9.52;;;;;;;;;;4996381;28;20026;-53
2022/09/02 03:31:15;;;;;;;21.23;9.43;;;;;;;;;;4996123;28;20034;-55
2022/09/02 03:33:42;;;;;;;25.85;8.95;;;;;;;;;;4996501;28;20038;-54
2022/09/02 03:36:09;;;;;;;19.85;8.77;;;;;;;;;;4996205;28;20022;-51
2022/09/02 03:38:36;;;;;;;19.33;9.32;;;;;;;;;;4996200;28;20045;-53
2022/09/02 03:41:03;;;;;;;24.23;9.43;;;;;;;;;;4996023;28;20117;-55
2022/09/02 03:43:30;;;;;;;20.20;9.50;;;;;;;;;;4996057;28;20023;-55
2022/09/02 03:45:57;;;;;;;20.75;8.68;;;;;;;;;;4995986;28;20065;-53
2022/09/02 03:48:24;;;;;;;19.58;9.00;;;;;;;;;;4996006;28;20029;-56
2022/09/02 03:50:51;;;;;;;21.10;8.82;;;;;;;;;;4995808;28;20050;-52
2022/09/02 03:53:18;;;;;;;17.05;7.88;;;;;;;;;;4994566;28;20362;-53
2022/09/02 03:55:45;;;;;;;19.00;7.95;;;;;;;;;;4995942;28;20057;-54
2022/09/02 03:58:12;;;;;;;18.70;8.05;;;;;;;;;;4995898;28;20488;-51
2022/09/02 04:00:40;;;;;;;20.23;8.43;;;;;;;;;;4995516;28;20105;-53
2022/09/02 04:03:07;;;;;;;17.42;7.88;;;;;;;;;;4995637;28;20754;-54
2022/09/02 04:05:34;;;;;;;17.73;8.10;;;;;;;;;;4995599;28;20034;-51
2022/09/02 04:08:01;;;;;;;18.05;8.10;;;;;;;;;;4995592;28;20038;-50
2022/09/02 04:10:28;;;;;;;19.05;8.07;;;;;;;;;;4995447;28;20026;-52
2022/09/02 04:12:55;;;;;;;14.13;7.22;;;;;;;;;;4995454;28;20030;-55
2022/09/02 04:15:22;;;;;;;13.20;6.53;;;;;;;;;;4978851;28;20441;-51
2022/09/02 04:17:49;;;;;;;16.98;7.65;;;;;;;;;;4974669;28;20560;-58
2022/09/02 04:20:16;;;;;;;16.48;7.03;;;;;;;;;;4974467;28;20392;-54
2022/09/02 04:22:44;;;;;;;17.70;6.70;;;;;;;;;;4974645;28;20497;-54
2022/09/02 04:25:11;;;;;;;15.40;7.43;;;;;;;;;;4971390;28;20038;-54
2022/09/02 04:27:38;;;;;;;15.05;6.75;;;;;;;;;;4975802;28;20031;-55
2022/09/02 04:30:06;;;;;;;15.05;7.18;;;;;;;;;;4975626;28;20029;-54
2022/09/02 04:32:33;;;;;;;22.02;7.15;;;;;;;;;;4975782;28;20102;-53
2022/09/02 04:35:00;;;;;;;15.90;6.80;;;;;;;;;;4975763;28;20523;-53
2022/09/02 04:37:27;;;;;;;14.88;6.50;;;;;;;;;;4975586;28;20034;-55
2022/09/02 04:39:56;;;;;;;12.50;6.53;;;;;;;;;;4975624;28;20025;-53
2022/09/02 04:42:24;;;;;;;14.68;7.07;;;;;;;;;;4975598;28;20046;-54
2022/09/02 04:44:53;;;;;;;13.88;6.18;;;;;;;;;;4974196;28;20042;-56
2022/09/02 04:47:20;;;;;;;21.17;7.10;;;;;;;;;;4975364;28;20034;-53
2022/09/02 04:49:47;;;;;;;13.77;6.70;;;;;;;;;;4975321;28;20037;-53
2022/09/02 04:52:15;;;;;;;12.95;6.47;;;;;;;;;;4975405;28;20097;-56
2022/09/02 04:54:42;;;;;;;14.13;6.40;;;;;;;;;;4975288;28;20037;-55
2022/09/02 04:57:09;;;;;;;14.75;6.53;;;;;;;;;;4975240;28;20551;-56
2022/09/02 04:59:36;;;;;;;11.55;5.63;;;;;;;;;;4975212;28;20023;-54
2022/09/02 05:02:03;;;;;;;12.77;6.00;;;;;;;;;;4975115;28;20038;-53
2022/09/02 05:04:31;;;;;;;12.88;5.97;;;;;;;;;;4975073;28;20105;-55
2022/09/02 05:07:00;;;;;;;12.73;5.53;;;;;;;;;;4975003;28;20034;-52
2022/09/02 05:09:30;;;;;;;13.30;5.60;;;;;;;;;;4974882;28;20049;-54
2022/09/02 05:12:02;;;;;;;12.95;5.47;;;;;;;;;;4974803;28;20404;-54
2022/09/02 05:14:29;;;;;;;12.98;5.40;;;;;;;;;;4974886;28;20465;-52
2022/09/02 05:16:56;;;;;;;10.20;5.32;;;;;;;;;;4974954;28;20019;-53
2022/09/02 05:19:24;;;;;;;10.88;4.63;;;;;;;;;;4974821;28;20027;-52
2022/09/02 05:21:57;;;;;;;11.15;5.55;;;;;;;;;;4974809;28;20042;-54
2022/09/02 05:24:25;;;;;;;14.65;5.75;;;;;;;;;;4973321;28;20038;-53
2022/09/02 05:26:52;;;;;;;10.00;5.10;;;;;;;;;;4974793;28;20436;-55
2022/09/02 05:29:19;;;;;;;13.27;5.53;;;;;;;;;;4974630;28;20023;-54
2022/09/02 05:31:47;;;;;;;11.38;5.40;;;;;;;;;;4974559;28;20030;-54
2022/09/02 05:34:14;;;;;;;10.23;4.68;;;;;;;;;;4974793;28;20497;-55
2022/09/02 05:36:41;;;;;;;10.48;5.57;;;;;;;;;;4974198;28;20023;-55
2022/09/02 05:39:08;;;;;;;9.70;4.85;;;;;;;;;;4974019;28;20042;-53
2022/09/02 05:41:36;;;;;;;10.43;5.38;;;;;;;;;;4974554;28;20503;-56
2022/09/02 05:44:03;;;;;;;9.30;4.68;;;;;;;;;;4974375;28;20031;-54
2022/09/02 05:46:30;;;;;;;9.27;4.82;;;;;;;;;;4974429;28;20481;-54
2022/09/02 05:49:16;;;;;;;11.63;4.85;;;;;;;;;;4974214;28;20026;-54
2022/09/02 05:51:47;;;;;;;9.32;4.82;;;;;;;;;;4974293;28;20109;-53
2022/09/02 05:54:16;;;;;;;11.75;5.45;;;;;;;;;;4974293;28;20069;-50
2022/09/02 05:56:44;;;;;;;10.38;4.30;;;;;;;;;;4974305;28;20413;-55
2022/09/02 05:59:11;;;;;;;9.70;4.90;;;;;;;;;;4974159;28;20054;-54
2022/09/02 06:01:38;;;;;;;11.23;4.60;;;;;;;;;;4971999;28;20468;-59
2022/09/02 06:04:05;;;;;;;8.82;4.22;;;;;;;;;;4974121;28;20034;-59
2022/09/02 06:06:33;;;;;;;10.63;5.03;;;;;;;;;;4974138;28;20030;-59
2022/09/02 06:09:00;;;;;;;9.45;4.80;;;;;;;;;;4973990;28;20069;-59
2022/09/02 06:11:27;;;;;;;9.40;4.85;;;;;;;;;;4973772;28;20476;-59
2022/09/02 06:13:54;;;;;;;10.02;4.32;;;;;;;;;;4974048;28;20048;-58
2022/09/02 06:16:23;;;;;;;10.65;4.43;;;;;;;;;;4973998;28;20026;-59
2022/09/02 06:18:50;;;;;;;7.93;4.25;;;;;;;;;;4973963;28;20557;-59
2022/09/02 06:21:19;;;;;;;9.55;4.45;;;;;;;;;;4974172;28;20042;-59
2022/09/02 06:23:46;;;;;;;8.88;4.28;;;;;;;;;;4973780;28;20481;-59
2022/09/02 06:26:14;;;;;;;6.18;4.10;;;;;;;;;;4973899;28;20027;-59
2022/09/02 06:28:41;;;;;;;9.40;4.15;;;;;;;;;;4973341;28;20050;-59
2022/09/02 06:31:09;;;;;;;7.70;4.25;;;;;;;;;;4973796;28;20038;-59
2022/09/02 06:33:36;;;;;;;7.28;4.00;;;;;;;;;;4973836;28;20453;-59
2022/09/02 06:36:06;;;;;;;5.88;3.60;;;;;;;;;;4973673;28;20039;-59
2022/09/02 06:38:36;;;;;;;8.95;3.83;;;;;;;;;;4973709;28;20420;-59
2022/09/02 06:41:03;;;;;;;9.10;3.88;;;;;;;;;;4973796;28;20548;-59
2022/09/02 06:43:30;;;;;;;7.97;3.65;;;;;;;;;;4973732;28;20058;-59
2022/09/02 06:45:57;;;;;;;7.20;3.55;;;;;;;;;;4973688;28;20088;-59
2022/09/02 06:48:24;;;;;;;7.70;3.83;;;;;;;;;;4974210;28;20154;-59
2022/09/02 06:50:54;;;;;;;9.43;4.05;;;;;;;;;;4977592;28;20022;-59
2022/09/02 06:53:21;;;;;;;9.77;4.35;;;;;;;;;;4977469;28;20041;-59
2022/09/02 06:55:48;;;;;;;9.18;3.70;;;;;;;;;;4977605;28;20125;-59
2022/09/02 06:58:15;;;;;;;9.07;3.78;;;;;;;;;;4977453;28;20025;-60
2022/09/02 07:00:43;;;;;;;9.75;3.70;;;;;;;;;;4977338;28;20026;-59
2022/09/02 07:06:24;;;;;;;8.40;3.63;;;;;;;;;;4977666;28;20194;-59
2022/09/02 07:08:51;;;;;;;6.53;3.33;;;;;;;;;;4975385;28;20042;-60
2022/09/02 07:11:22;;;;;;;6.65;3.50;;;;;;;;;;4977074;28;20046;-59
2022/09/02 07:13:50;;;;;;;8.43;3.30;;;;;;;;;;4977200;28;20026;-58
2022/09/02 07:16:17;;;;;;;7.97;3.10;;;;;;;;;;4977208;28;20046;-59
2022/09/02 07:18:44;;;;;;;7.82;3.30;;;;;;;;;;4976952;28;20031;-59
2022/09/02 07:21:12;;;;;;;6.50;3.53;;;;;;;;;;4977070;28;20023;-59
2022/09/02 07:23:39;;;;;;;8.45;3.80;;;;;;;;;;4976950;28;20041;-59
2022/09/02 07:26:11;;;;;;;7.25;3.38;;;;;;;;;;4977000;28;20159;-59
2022/09/02 07:28:37;;;;;;;;;;;;;;;;;;4977234;28;20085;-59
2022/09/02 07:31:08;;;;;;;5.57;3.35;;;;;;;;;;4976920;28;19956;-59
2022/09/02 07:33:35;;;;;;;7.40;3.30;;;;;;;;;;4976857;28;20114;-59
2022/09/02 07:36:04;;;;;;;6.70;3.20;;;;;;;;;;4976850;28;20062;-59
2022/09/02 07:38:32;;;;;;;10.38;3.38;;;;;;;;;;4976557;28;20034;-59
2022/09/02 07:40:59;;;;;;;7.35;3.20;;;;;;;;;;4976757;28;20550;-59
2022/09/02 07:43:27;;;;;;;8.32;3.33;;;;;;;;;;4976624;28;20027;-59
2022/09/02 07:45:54;;;;;;;8.65;3.08;;;;;;;;;;4976629;28;20031;-59
2022/09/02 07:48:22;;;;;;;5.93;3.20;;;;;;;;;;4976616;28;20484;-59
2022/09/02 07:50:49;;;;;;;6.65;2.83;;;;;;;;;;4976616;28;20023;-59
2022/09/02 07:53:16;;;;;;;7.30;3.30;;;;;;;;;;4976526;28;20491;-59
2022/09/02 07:55:43;;;;;;;9.30;2.63;;;;;;;;;;4976549;28;20026;-59
2022/09/02 07:58:11;;;;;;;4.97;2.88;;;;;;;;;;4976421;28;20030;-60
2022/09/02 08:00:38;;;;;;;7.25;2.95;;;;;;;;;;4975343;28;20106;-59
2022/09/02 08:03:05;;;;;;;6.30;2.70;;;;;;;;;;4976365;28;20023;-59
2022/09/02 08:05:32;;;;;;;5.07;2.83;;;;;;;;;;4958925;28;20049;-60
2022/09/02 08:08:00;;;;;;;8.23;3.05;;;;;;;;;;4976178;28;20062;-59
2022/09/02 08:10:28;;;;;;;4.88;2.35;;;;;;;;;;4975901;28;20018;-58
2022/09/02 08:12:56;;;;;;;5.75;2.95;;;;;;;;;;4976103;28;20027;-59
2022/09/02 08:15:27;;;;;;;8.40;3.28;;;;;;;;;;4976045;28;20105;-59
2022/09/02 08:17:55;;;;;;;6.72;2.80;;;;;;;;;;4976101;28;20094;-59
2022/09/02 08:20:22;;;;;;;6.72;2.78;;;;;;;;;;4975899;28;20031;-59
2022/09/02 08:22:49;;;;;;;6.45;2.80;;;;;;;;;;4976034;28;20085;-60
2022/09/02 08:25:19;;;;;;;5.25;2.65;;;;;;;;;;4974477;28;20464;-60
2022/09/02 08:27:46;;;;;;;6.82;2.85;;;;;;;;;;4975878;28;20061;-60
2022/09/02 08:30:13;;;;;;;5.80;2.85;;;;;;;;;;4975655;28;20106;-59
2022/09/02 08:32:40;;;;;;;4.82;2.58;;;;;;;;;;4975830;28;20026;-59
2022/09/02 08:35:08;;;;;;;8.02;3.20;;;;;;;;;;4975770;28;20037;-60
2022/09/02 08:37:35;;;;;;;4.20;2.30;;;;;;;;;;4975793;28;20385;-59
2022/09/02 08:40:04;;;;;;;4.70;2.30;;;;;;;;;;4975466;28;20106;-59
2022/09/02 08:42:41;;;;;;;6.63;2.50;;;;;;;;;;4975596;28;20484;-59
2022/09/02 08:45:11;;;;;;;4.75;2.38;;;;;;;;;;4975460;28;20106;-59
2022/09/02 08:47:39;;;;;;;5.18;2.50;;;;;;;;;;4975413;28;20393;-59
2022/09/02 08:50:18;;;;;;;6.72;2.60;;;;;;;;;;4975445;28;20041;-59
2022/09/02 08:53:11;;;;;;;5.55;2.53;;;;;;;;;;4975397;28;20073;-59
2022/09/02 08:55:52;;;;;;;4.53;2.00;;;;;;;;;;4972102;28;20121;-61
2022/09/02 08:58:21;;;;;;;7.13;2.63;;;;;;;;;;4975210;28;20038;-61
2022/09/02 09:00:57;;;;;;;4.88;2.40;;;;;;;;;;4975131;28;20042;-62
2022/09/02 09:03:42;;;;;;;4.40;2.22;;;;;;;;;;4975174;28;20389;-61
2022/09/02 09:06:35;;;;;;;4.68;2.30;;;;;;;;;;4975154;28;20030;-62
2022/09/02 09:09:25;;;;;;;8.50;2.72;;;;;;;;;;4971702;28;20045;-61
2022/09/02 09:12:01;;;;;;;5.00;2.15;;;;;;;;;;4938884;28;20050;-61
2022/09/02 09:14:31;;;;;;;6.35;2.38;;;;;;;;;;4974948;28;20053;-62
2022/09/02 09:17:21;;;;;;;4.13;2.25;;;;;;;;;;4974886;28;20026;-61
2022/09/02 09:19:53;;;;;;;4.43;2.00;;;;;;;;;;4974923;28;20428;-61
2022/09/02 09:22:21;;;;;;;3.90;2.20;;;;;;;;;;4974888;28;20031;-61
2022/09/02 09:24:51;;;;;;;5.35;2.13;;;;;;;;;;4974057;28;20393;-61
2022/09/02 09:27:19;;;;;;;3.92;2.15;;;;;;;;;;4973468;28;20042;-61
2022/09/02 09:29:47;;;;;;;4.20;2.22;;;;;;;;;;4968792;28;20050;-56
2022/09/02 09:32:27;;;;;;;5.50;2.10;;;;;;;;;;4973632;28;20436;-60
2022/09/02 09:35:08;;;;;;;18.58;2.50;;;;;;;;;;4972397;28;20166;-56
2022/09/02 09:37:37;;;;;;;7.10;2.20;;;;;;;;;;4973744;28;20031;-55
2022/09/02 09:40:22;;;;;;;9.68;2.08;;;;;;;;;;4974233;28;20034;-61
2022/09/02 09:42:58;;;;;;;12.48;2.50;;;;;;;;;;4974409;28;20031;-56
2022/09/02 09:45:28;;;;;;;10.93;2.50;;;;;;;;;;4974421;28;20034;-56
2022/09/02 09:48:13;;;;;;;10.38;2.60;;;;;;;;;;4974496;28;20110;-51
2022/09/02 09:50:40;;;;;;;10.13;2.30;;;;;;;;;;4974407;28;20054;-53
2022/09/02 09:53:19;;;;;;;9.80;2.67;;;;;;;;;;4974355;28;20050;-57
2022/09/02 09:56:06;;;;;;;7.53;2.10;;;;;;;;;;4974324;28;20026;-55
2022/09/02 09:58:35;;;;;;;10.00;2.40;;;;;;;;;;4974152;28;20041;-53
2022/09/02 10:01:13;;;;;;;7.10;2.20;;;;;;;;;;4974169;28;20042;-54
2022/09/02 10:03:48;;;;;;;7.10;2.10;;;;;;;;;;4974011;28;20035;-55
2022/09/02 10:06:19;;;;;;;10.50;2.42;;;;;;;;;;4974176;28;20023;-53
2022/09/02 10:08:57;;;;;;;10.48;2.60;;;;;;;;;;4974028;28;20501;-55
2022/09/02 10:11:29;;;;;;;7.88;2.38;;;;;;;;;;4954204;29;20516;-61
2022/09/02 10:14:01;;;;;;;9.35;2.42;;;;;;;;;;4966925;28;20452;-62
2022/09/02 10:16:27;;;;;;;11.23;2.50;;;;;;;;;;4954863;28;20359;-56
2022/09/02 10:18:57;;;;;;;9.32;2.25;;;;;;;;;;4966050;28;20046;-61
2022/09/02 10:22:00;;;;;;;9.98;2.63;;;;;;;;;;4969493;28;20031;-61
2022/09/02 10:24:49;;;;;;;9.50;2.63;;;;;;;;;;4910439;29;20044;-61
2022/09/02 10:27:17;;;;;;;5.55;2.00;;;;;;;;;;4970600;28;20049;-60
2022/09/02 10:30:02;;;;;;;7.90;2.42;;;;;;;;;;4960670;28;20115;-56
2022/09/02 10:32:35;;;;;;;7.10;2.17;;;;;;;;;;4958703;28;20039;-57
2022/09/02 10:35:20;;;;;;;10.90;2.50;;;;;;;;;;4954356;28;20019;-56
2022/09/02 10:38:03;;;;;;;10.75;2.33;;;;;;;;;;4970359;28;20492;-61
2022/09/02 10:40:42;;;;;;;7.50;1.92;;;;;;;;;;4964303;28;20039;-53
2022/09/02 10:43:27;;;;;;;15.10;2.72;;;;;;;;;;4970648;28;20137;-56
2022/09/02 10:45:57;;;;;;;10.52;2.53;;;;;;;;;;4973378;28;20070;-56
2022/09/02 10:48:33;;;;;;;14.63;2.78;;;;;;;;;;4966389;28;20058;-61
2022/09/02 10:51:09;;;;;;;10.10;2.40;;;;;;;;;;4954048;28;20034;-61
2022/09/02 10:53:37;;;;;;;12.68;2.42;;;;;;;;;;4967778;28;20019;-52
2022/09/02 10:56:09;;;;;;;17.15;2.45;;;;;;;;;;4954198;29;20101;-61
2022/09/02 10:58:35;;;;;;;;;;;;;;;;;;4954441;28;20031;-61
2022/09/02 11:01:03;;;;;;;12.32;2.45;;;;;;;;;;4954122;28;19910;-61
2022/09/02 11:03:35;;;;;;;8.15;2.38;;;;;;;;;;4953944;28;20079;-57
2022/09/02 11:06:12;;;;;;;10.20;2.42;;;;;;;;;;4936876;29;20434;-56
2022/09/02 11:08:41;;;;;;;6.40;2.55;;;;;;;;;;4955192;28;20027;-61
2022/09/02 11:11:22;;;;;;;10.00;2.75;;;;;;;;;;4973065;28;20086;-61
2022/09/02 11:14:07;;;;;;;7.88;1.83;;;;;;;;;;4959386;28;20500;-55
2022/09/02 11:16:37;;;;;;;8.13;2.53;;;;;;;;;;4972889;28;20023;-56
2022/09/02 11:19:18;;;;;;;7.93;1.95;;;;;;;;;;4971981;28;20497;-61
2022/09/02 11:21:45;;;;;;;11.45;2.22;;;;;;;;;;4972261;28;20067;-64
2022/09/02 11:24:14;;;;;;;28.63;3.67;;;;;;;;;;4959001;28;20039;-62
2022/09/02 11:26:46;;;;;;;29.88;4.13;;;;;;;;;;4965868;28;20086;-63
2022/09/02 11:29:19;;;;;;;38.67;4.87;;;;;;;;;;4967190;28;20038;-62
2022/09/02 11:31:49;;;;;;;207.27;15.68;;;;;;;;;;4953751;28;20114;-59
2022/09/02 11:34:16;;;;;;;223.13;20.77;;;;;;;;;;4953900;28;20023;-54
2022/09/02 11:36:43;;;;;;;90.82;10.52;;;;;;;;;;4955923;28;20046;-55
2022/09/02 11:39:16;;;;;;;69.78;8.60;;;;;;;;;;4957188;28;20043;-51
2022/09/02 11:41:46;;;;;;;77.82;9.40;;;;;;;;;;4970499;28;20114;-52
2022/09/02 11:44:16;;;;;;;80.65;9.95;;;;;;;;;;4957060;28;20626;-61
2022/09/02 11:46:49;;;;;;;338.88;31.85;;;;;;;;;;4964220;28;20033;-63
2022/09/02 11:49:34;;;;;;;201.63;19.17;;;;;;;;;;4975770;28;20041;-60
2022/09/02 11:52:06;;;;;;;92.78;13.48;;;;;;;;;;4958655;28;20038;-60
2022/09/02 11:54:41;;;;;;;72.97;11.53;;;;;;;;;;4967614;28;20053;-59
2022/09/02 11:57:11;;;;;;;76.90;9.90;;;;;;;;;;4975882;28;20266;-53
2022/09/02 11:59:50;;;;;;;75.80;10.02;;;;;;;;;;4965621;28;20038;-60
2022/09/02 12:02:38;;;;;;;74.07;10.13;;;;;;;;;;4961237;28;20035;-59
2022/09/02 12:05:24;;;;;;;75.35;9.93;;;;;;;;;;4975941;28;20035;-52
2022/09/02 12:07:51;;;;;;;96.35;10.75;;;;;;;;;;4967760;28;20027;-50
2022/09/02 12:10:36;;;;;;;91.38;12.32;;;;;;;;;;4970049;28;20027;-52
2022/09/02 12:13:03;;;;;;;107.53;12.65;;;;;;;;;;4956530;28;20047;-52
2022/09/02 12:15:31;;;;;;;106.78;14.48;;;;;;;;;;4967030;28;20026;-51
2022/09/02 12:17:58;;;;;;;98.85;12.45;;;;;;;;;;4964394;28;20070;-52
2022/09/02 12:20:41;;;;;;;100.63;12.18;;;;;;;;;;4956285;28;20481;-54
2022/09/02 12:23:31;;;;;;;94.20;12.25;;;;;;;;;;4968238;28;20047;-51
2022/09/02 12:26:01;;;;;;;80.30;11.75;;;;;;;;;;4975681;28;20038;-52
2022/09/02 12:28:29;;;;;;;102.18;12.02;;;;;;;;;;4975382;28;20031;-60
2022/09/02 12:31:09;;;;;;;81.93;10.82;;;;;;;;;;4959694;28;20089;-59
2022/09/02 12:33:40;;;;;;;81.78;10.77;;;;;;;;;;4972415;28;20512;-60
2022/09/02 12:36:08;;;;;;;67.70;9.15;;;;;;;;;;4974258;28;20396;-53
2022/09/02 12:38:38;;;;;;;58.58;8.30;;;;;;;;;;4974625;28;20401;-60
2022/09/02 12:41:07;;;;;;;63.83;9.32;;;;;;;;;;4975224;28;20113;-60
2022/09/02 12:43:43;;;;;;;57.30;8.27;;;;;;;;;;4962387;28;20039;-55
2022/09/02 12:46:19;;;;;;;55.63;8.15;;;;;;;;;;4964388;28;20023;-54
2022/09/02 12:48:51;;;;;;;53.83;8.30;;;;;;;;;;4974302;28;20489;-60
2022/09/02 12:51:18;;;;;;;;;;;;;;;;;;4973805;28;20183;-60
2022/09/02 12:53:49;;;;;;;46.83;7.53;;;;;;;;;;4974935;28;19910;-60
2022/09/02 12:56:20;;;;;;;42.50;7.00;;;;;;;;;;4975055;28;20031;-61
2022/09/02 12:58:57;;;;;;;33.00;7.03;;;;;;;;;;4961604;28;20508;-54
2022/09/02 13:01:33;;;;;;;36.75;6.80;;;;;;;;;;4971664;28;20031;-51
2022/09/02 13:04:05;;;;;;;42.67;6.80;;;;;;;;;;4970559;28;20031;-60
2022/09/02 13:06:35;;;;;;;39.50;7.53;;;;;;;;;;4972323;28;20077;-56
2022/09/02 13:09:02;;;;;;;48.40;7.88;;;;;;;;;;4957175;28;20059;-61
2022/09/02 13:11:35;;;;;;;50.03;7.57;;;;;;;;;;4946952;29;20418;-61
2022/09/02 13:14:05;;;;;;;49.10;7.47;;;;;;;;;;4969162;28;20122;-52
2022/09/02 13:16:35;;;;;;;56.83;8.77;;;;;;;;;;4965846;28;20150;-54
2022/09/02 13:19:24;;;;;;;55.13;8.05;;;;;;;;;;4957625;28;20474;-56
2022/09/02 13:22:00;;;;;;;49.13;8.13;;;;;;;;;;4955396;29;20034;-61
2022/09/02 13:24:39;;;;;;;49.78;7.82;;;;;;;;;;4961014;28;20129;-60
2022/09/02 13:27:24;;;;;;;42.03;7.28;;;;;;;;;;4961096;28;20043;-55
2022/09/02 13:30:09;;;;;;;41.17;6.82;;;;;;;;;;4963323;28;20073;-55
2022/09/02 13:32:36;;;;;;;41.38;6.68;;;;;;;;;;4966181;28;20035;-60
2022/09/02 13:35:06;;;;;;;42.30;6.82;;;;;;;;;;4960789;28;20033;-60
2022/09/02 13:37:41;;;;;;;39.53;6.38;;;;;;;;;;4956448;28;20027;-61
2022/09/02 13:40:20;;;;;;;34.95;6.15;;;;;;;;;;4971436;28;20041;-54
2022/09/02 13:42:52;;;;;;;44.95;6.80;;;;;;;;;;4973122;28;20383;-60
2022/09/02 13:45:21;;;;;;;51.80;7.57;;;;;;;;;;4954429;28;20066;-57
2022/09/02 13:47:52;;;;;;;49.60;6.57;;;;;;;;;;4972228;28;20437;-52
2022/09/02 13:50:21;;;;;;;48.58;6.93;;;;;;;;;;4972151;28;20027;-60
2022/09/02 13:52:54;;;;;;;44.55;7.18;;;;;;;;;;4973629;28;20073;-60
2022/09/02 13:55:21;;;;;;;37.75;6.60;;;;;;;;;;4972221;28;20471;-59
2022/09/02 13:57:58;;;;;;;51.25;7.57;;;;;;;;;;4972677;28;20042;-60
2022/09/02 14:00:32;;;;;;;38.92;6.60;;;;;;;;;;4967820;28;20397;-56
2022/09/02 14:03:00;;;;;;;49.47;7.30;;;;;;;;;;4970996;28;20038;-57
2022/09/02 14:05:28;;;;;;;52.78;7.32;;;;;;;;;;4966819;28;20484;-61
2022/09/02 14:07:57;;;;;;;52.08;7.45;;;;;;;;;;4972575;28;20035;-56
2022/09/02 14:10:26;;;;;;;40.67;7.32;;;;;;;;;;4972777;28;20421;-55
2022/09/02 14:12:54;;;;;;;44.97;7.15;;;;;;;;;;4970585;28;20027;-59
2022/09/02 14:15:26;;;;;;;34.50;6.90;;;;;;;;;;4973241;28;20503;-57
2022/09/02 14:18:11;;;;;;;36.40;6.57;;;;;;;;;;4973538;28;20070;-56
2022/09/02 14:20:39;;;;;;;41.58;6.88;;;;;;;;;;4960437;28;20031;-62
2022/09/02 14:23:08;;;;;;;41.28;7.10;;;;;;;;;;4966082;28;20034;-58
2022/09/02 14:25:39;;;;;;;44.08;7.07;;;;;;;;;;4967855;28;20044;-57
2022/09/02 14:28:12;;;;;;;39.90;6.63;;;;;;;;;;4970696;28;20393;-57
2022/09/02 14:30:40;;;;;;;40.40;6.03;;;;;;;;;;4973519;28;20062;-61
2022/09/02 14:33:24;;;;;;;38.75;6.20;;;;;;;;;;4972443;28;20038;-62
2022/09/02 14:35:59;;;;;;;47.78;7.20;;;;;;;;;;4972037;28;20022;-62
2022/09/02 14:38:27;;;;;;;38.33;6.03;;;;;;;;;;4973414;28;20030;-60
2022/09/02 14:41:07;;;;;;;41.05;6.95;;;;;;;;;;4973478;28;20042;-58
2022/09/02 14:43:40;;;;;;;42.20;6.53;;;;;;;;;;4973200;28;20035;-59
2022/09/02 14:46:07;;;;;;;45.58;7.65;;;;;;;;;;4973176;28;20093;-62
2022/09/02 14:48:38;;;;;;;43.00;6.30;;;;;;;;;;4966873;28;20027;-60
2022/09/02 14:51:06;;;;;;;38.67;5.95;;;;;;;;;;4969856;28;20035;-53
2022/09/02 14:53:36;;;;;;;35.58;5.95;;;;;;;;;;4973355;28;20033;-54